createdAt,value
2022-07-29T00:03:54.059Z,83.80
2022-07-29T00:08:52.079Z,84.10
2022-07-29T00:13:51.163Z,84.60
2022-07-29T00:18:50.628Z,84.20
2022-07-29T00:23:48.592Z,84.80
2022-07-29T00:28:46.556Z,85.10
2022-07-29T00:33:44.510Z,85.80
2022-07-29T00:38:46.154Z,87.10
2022-07-29T00:43:44.475Z,86.70
2022-07-29T00:48:42.537Z,87.40
2022-07-29T00:53:40.556Z,87.60
2022-07-29T00:58:40.717Z,88.30
2022-07-29T01:03:38.620Z,88.80
2022-07-29T01:08:37.368Z,89.50
2022-07-29T01:13:36.133Z,90.20
2022-07-29T01:18:39.836Z,90.30
2022-07-29T01:23:59.105Z,90.60
2022-07-29T01:29:18.939Z,90.50
2022-07-29T01:34:24.004Z,90.70
2022-07-29T01:39:27.984Z,91.40
2022-07-29T01:44:34.217Z,91.90
2022-07-29T01:49:37.564Z,92.30
2022-07-29T01:54:40.785Z,92.30
2022-07-29T01:59:42.267Z,92.60
2022-07-29T02:04:43.152Z,93.30
2022-07-29T02:09:43.343Z,93.50
2022-07-29T02:14:45.764Z,93.60
2022-07-29T02:19:46.298Z,94.00
2022-07-29T02:24:44.768Z,94.10
2022-07-29T02:29:45.112Z,94.70
2022-07-29T02:34:44.861Z,94.80
2022-07-29T02:39:45.860Z,95.10
2022-07-29T02:44:45.660Z,95.50
2022-07-29T02:49:53.461Z,95.70
2022-07-29T02:54:56.952Z,95.90
2022-07-29T03:00:01.536Z,96.10
2022-07-29T03:05:01.071Z,96.60
2022-07-29T03:09:59.962Z,96.80
2022-07-29T03:15:00.828Z,97.00
2022-07-29T03:19:59.240Z,97.40
2022-07-29T03:24:57.714Z,97.50
2022-07-29T03:29:55.789Z,98.00
2022-07-29T03:34:55.909Z,98.20
2022-07-29T03:39:57.105Z,98.40
2022-07-29T03:44:57.889Z,98.70
2022-07-29T03:50:02.245Z,99.30
2022-07-29T03:55:00.430Z,99.40
2022-07-29T03:59:59.143Z,99.50
2022-07-29T04:04:58.624Z,99.80
2022-07-29T04:09:56.582Z,99.90
2022-07-29T04:14:54.538Z,99.90
2022-07-29T04:19:52.545Z,99.90
2022-07-29T04:24:51.856Z,99.90
2022-07-29T04:29:56.999Z,99.90
2022-07-29T04:34:55.443Z,99.90
2022-07-29T04:39:54.763Z,99.90
2022-07-29T04:44:52.779Z,99.90
2022-07-29T04:49:50.785Z,99.90
2022-07-29T04:54:48.789Z,99.90
2022-07-29T04:59:48.223Z,99.90
2022-07-29T05:04:46.308Z,99.90
2022-07-29T05:09:44.320Z,99.90
2022-07-29T05:14:42.406Z,99.90
2022-07-29T05:19:41.811Z,99.90
2022-07-29T05:24:39.875Z,99.90
2022-07-29T05:29:43.889Z,99.90
2022-07-29T05:34:51.330Z,99.90
2022-07-29T05:39:56.427Z,99.90
2022-07-29T05:44:55.727Z,99.90
2022-07-29T05:49:55.314Z,99.90
2022-07-29T05:54:53.347Z,99.90
2022-07-29T05:59:52.491Z,99.90
2022-07-29T06:04:50.694Z,99.90
2022-07-29T06:09:50.112Z,99.90
2022-07-29T06:14:50.923Z,99.90
2022-07-29T06:19:52.015Z,99.90
2022-07-29T06:24:51.480Z,99.90
2022-07-29T06:29:49.555Z,99.90
2022-07-29T06:34:48.844Z,99.90
2022-07-29T06:39:47.027Z,99.90
2022-07-29T06:44:46.350Z,99.90
2022-07-29T06:49:44.391Z,99.90
2022-07-29T06:54:48.853Z,99.90
2022-07-29T06:59:48.191Z,99.90
2022-07-29T07:04:46.198Z,99.90
2022-07-29T07:09:47.339Z,99.90
2022-07-29T07:14:45.568Z,99.90
2022-07-29T07:19:46.046Z,99.80
2022-07-29T07:24:44.047Z,99.80
2022-07-29T07:29:43.709Z,99.90
2022-07-29T07:34:43.803Z,98.90
2022-07-29T07:39:42.058Z,98.20
2022-07-29T07:45:03.861Z,97.60
2022-07-29T07:49:59.507Z,97.10
2022-07-29T07:54:57.469Z,96.00
2022-07-29T07:59:55.516Z,96.50
2022-07-29T08:04:53.479Z,95.70
2022-07-29T08:09:52.887Z,94.40
2022-07-29T08:14:50.887Z,93.70
2022-07-29T08:19:49.315Z,94.40
2022-07-29T08:24:53.334Z,93.80
2022-07-29T08:29:54.273Z,93.90
2022-07-29T08:34:52.266Z,93.20
2022-07-29T08:39:50.289Z,92.10
2022-07-29T08:44:48.389Z,91.50
2022-07-29T08:49:49.437Z,90.20
2022-07-29T08:54:48.122Z,90.10
2022-07-29T08:59:49.190Z,90.40
2022-07-29T09:04:48.986Z,89.70
2022-07-29T09:09:47.170Z,89.70
2022-07-29T09:14:45.471Z,90.20
2022-07-29T09:19:45.319Z,88.30
2022-07-29T09:24:46.347Z,85.70
2022-07-29T09:29:45.422Z,83.00
2022-07-29T09:34:43.361Z,79.00
2022-07-29T09:39:46.736Z,80.20
2022-07-29T09:44:50.141Z,78.30
2022-07-29T09:49:58.781Z,78.40
2022-07-29T09:55:07.206Z,77.10
2022-07-29T10:00:08.066Z,76.40
2022-07-29T10:05:20.941Z,74.60
2022-07-29T10:10:25.574Z,73.20
2022-07-29T10:15:25.603Z,72.40
2022-07-29T10:20:24.607Z,67.20
2022-07-29T10:25:25.103Z,64.30
2022-07-29T10:30:24.891Z,64.00
2022-07-29T10:35:56.715Z,64.40
2022-07-29T10:41:25.145Z,63.10
2022-07-29T10:46:24.710Z,64.40
2022-07-29T10:51:23.904Z,62.10
2022-07-29T10:56:29.225Z,61.20
2022-07-29T11:01:37.021Z,62.10
2022-07-29T11:07:09.993Z,61.00
2022-07-29T11:12:47.737Z,62.00
2022-07-29T11:18:08.301Z,62.00
2022-07-29T11:23:21.759Z,62.00
2022-07-29T11:28:25.344Z,59.70
2022-07-29T11:33:54.864Z,58.20
2022-07-29T11:38:49.237Z,58.60
2022-07-29T11:43:53.151Z,58.10
2022-07-29T11:48:52.148Z,58.40
2022-07-29T11:53:52.650Z,57.60
2022-07-29T11:58:52.421Z,56.70
2022-07-29T12:04:03.973Z,56.10
2022-07-29T12:09:11.271Z,57.10
2022-07-29T12:14:27.380Z,56.70
2022-07-29T12:19:25.720Z,57.20
2022-07-29T12:24:26.678Z,55.40
2022-07-29T12:29:33.820Z,56.90
2022-07-29T12:34:34.063Z,58.10
2022-07-29T12:39:32.420Z,58.20
2022-07-29T12:50:10.242Z,59.20
2022-07-29T12:55:08.973Z,59.10
2022-07-29T13:00:11.131Z,57.40
2022-07-29T13:05:12.127Z,57.70
2022-07-29T13:10:15.791Z,58.80
2022-07-29T13:15:17.881Z,59.20
2022-07-29T13:20:17.298Z,57.30
2022-07-29T13:25:15.357Z,57.10
2022-07-29T13:30:14.397Z,57.20
2022-07-29T13:35:12.694Z,57.60
2022-07-29T13:40:13.185Z,56.40
2022-07-29T13:45:12.794Z,56.40
2022-07-29T13:50:12.056Z,57.60
2022-07-29T13:55:11.937Z,56.50
2022-07-29T14:00:11.202Z,56.10
2022-07-29T14:05:10.810Z,56.90
2022-07-29T14:10:11.302Z,56.80
2022-07-29T14:15:10.382Z,55.60
2022-07-29T14:20:09.035Z,56.90
2022-07-29T14:25:14.399Z,57.70
2022-07-29T14:30:15.385Z,57.80
2022-07-29T14:35:13.408Z,57.50
2022-07-29T14:40:12.371Z,55.90
2022-07-29T14:45:11.703Z,56.40
2022-07-29T14:50:12.274Z,56.50
2022-07-29T14:55:16.513Z,56.40
2022-07-29T15:00:19.133Z,55.20
2022-07-29T15:05:18.627Z,54.90
2022-07-29T15:10:16.784Z,55.10
2022-07-29T15:15:15.009Z,53.60
2022-07-29T15:20:13.342Z,53.70
2022-07-29T15:25:13.306Z,53.30
2022-07-29T15:30:27.910Z,53.90
2022-07-29T15:35:31.300Z,53.80
2022-07-29T15:40:31.036Z,53.70
2022-07-29T15:45:32.493Z,53.00
2022-07-29T15:50:32.620Z,53.30
2022-07-29T15:55:32.004Z,53.20
2022-07-29T16:00:30.061Z,52.90
2022-07-29T16:05:29.580Z,53.20
2022-07-29T16:10:27.817Z,54.00
2022-07-29T16:15:27.341Z,53.70
2022-07-29T16:20:25.450Z,54.10
2022-07-29T16:25:43.860Z,54.70
2022-07-29T16:30:44.466Z,54.40
2022-07-29T16:35:42.475Z,53.50
2022-07-29T16:40:40.535Z,53.60
2022-07-29T16:45:45.812Z,53.80
2022-07-29T16:50:45.985Z,53.80
2022-07-29T16:55:44.230Z,53.70
2022-07-29T17:00:42.537Z,53.60
2022-07-29T17:05:52.584Z,53.70
2022-07-29T17:10:53.580Z,54.30
2022-07-29T17:15:51.691Z,55.10
2022-07-29T17:20:49.751Z,54.70
2022-07-29T17:25:47.820Z,54.60
2022-07-29T17:30:47.334Z,54.50
2022-07-29T17:36:03.262Z,54.40
2022-07-29T17:41:01.392Z,54.50
2022-07-29T17:46:08.119Z,55.20
2022-07-29T17:51:06.521Z,54.90
2022-07-29T17:56:05.984Z,54.80
2022-07-29T18:01:04.396Z,55.10
2022-07-29T18:06:04.283Z,55.60
2022-07-29T18:11:02.422Z,55.50
2022-07-29T18:16:00.958Z,55.50
2022-07-29T18:20:59.128Z,56.10
2022-07-29T18:25:58.591Z,56.60
2022-07-29T18:30:56.700Z,55.90
2022-07-29T18:36:07.696Z,56.30
2022-07-29T18:41:11.403Z,56.10
2022-07-29T18:46:09.422Z,56.40
2022-07-29T18:51:09.493Z,56.40
2022-07-29T18:56:07.716Z,56.60
2022-07-29T19:01:07.175Z,56.90
2022-07-29T19:06:05.582Z,57.10
2022-07-29T19:11:07.328Z,57.30
2022-07-29T19:16:07.482Z,57.60
2022-07-29T19:21:05.535Z,57.60
2022-07-29T19:26:03.617Z,57.80
2022-07-29T19:31:08.149Z,58.20
2022-07-29T19:36:06.673Z,58.30
2022-07-29T19:41:06.119Z,58.30
2022-07-29T19:46:04.222Z,58.40
2022-07-29T19:51:03.588Z,58.60
2022-07-29T19:56:01.595Z,58.90
2022-07-29T20:00:59.717Z,59.30
2022-07-29T20:05:58.260Z,59.30
2022-07-29T20:10:57.610Z,59.50
2022-07-29T20:15:55.634Z,59.60
2022-07-29T20:20:53.925Z,59.60
2022-07-29T20:25:51.952Z,59.80
2022-07-29T20:30:53.449Z,59.80
2022-07-29T20:35:51.695Z,60.10
2022-07-29T20:40:50.665Z,60.20
2022-07-29T20:45:48.779Z,60.70
2022-07-29T20:50:48.807Z,60.70
2022-07-29T20:55:46.739Z,61.20
2022-07-29T21:00:44.794Z,61.00
2022-07-29T21:05:43.934Z,61.50
2022-07-29T21:10:43.433Z,61.60
2022-07-29T21:15:44.036Z,62.20
2022-07-29T21:20:42.074Z,62.10
2022-07-29T21:25:40.025Z,62.30
2022-07-29T21:30:39.354Z,62.40
2022-07-29T21:36:07.314Z,62.50
2022-07-29T21:40:55.642Z,62.90
2022-07-29T21:45:55.318Z,62.90
2022-07-29T21:50:54.237Z,62.90
2022-07-29T21:55:54.215Z,63.10
2022-07-29T22:00:54.978Z,63.40
2022-07-29T22:05:53.172Z,63.80
2022-07-29T22:10:51.306Z,63.80
2022-07-29T22:15:49.332Z,63.80
2022-07-29T22:20:48.798Z,63.70
2022-07-29T22:25:46.821Z,64.10
2022-07-29T22:30:44.851Z,64.30
2022-07-29T22:35:42.875Z,64.40
2022-07-29T22:40:42.287Z,64.40
2022-07-29T22:45:42.614Z,64.50
2022-07-29T22:50:40.889Z,64.50
2022-07-29T22:55:38.906Z,64.70
2022-07-29T23:00:38.676Z,65.00
2022-07-29T23:05:37.070Z,65.00
2022-07-29T23:10:35.242Z,65.30
2022-07-29T23:15:33.227Z,65.60
2022-07-29T23:20:32.639Z,65.80
2022-07-29T23:25:30.779Z,66.20
2022-07-29T23:30:29.150Z,66.00
2022-07-29T23:35:27.407Z,66.20
2022-07-29T23:40:26.916Z,66.30
2022-07-29T23:45:32.549Z,66.40
2022-07-29T23:50:43.265Z,66.70
2022-07-29T23:55:42.640Z,67.00
